Preston, MS (39354)

5:11 AM CDT on May 25, 2015 (GMT -0500)
Bond Community | | Change Station
CLOSE
Current Station
Personal Weather Station
Location: Philadelphia, MS
Elevation: 469 ft
Nearby Weather Stations

Elev 469 ft 32.85 °N, 89.01 °W | Updated 6 minutes ago

Rain
Rain
72.1 °F
Feels Like 72.1 °F
N
1.1
Wind Variable Wind from NE
Gusts 4.7 mph

Today
High -- | Low -- °F
--% Chance of Precip.
Yesterday
High -- | Low -- °F
Precip. -- in
5:50 AM 7:54 PM
Waxing Crescent, 47% visible
Pressure 30.09 in
Visibility 2.0 miles
Clouds Scattered Clouds 500 ft
Mostly Cloudy 3800 ft
Overcast 9000 ft
Dew Point 72 °F
Humidity 99%
Rainfall 0.07 in
Snow Depth Not available.
UV 0 out of 12
Pollen 6.30 out of 12
Air Quality Not available.
Flu Activity No Activity
SPECI KNMM 251004Z AUTO 12016G19KT 2SM +TSRA BR SCT005 BKN038 OVC090 21/19 A3009 RMK AO2 P0003 T02110189 $

More Conditions Fewer Conditions

Pressure 30.09 in
Visibility 2.0 miles
Clouds Scattered Clouds 500 ft
Mostly Cloudy 3800 ft
Overcast 9000 ft
Dew Point 72 °F
Humidity 99%
Rainfall 0.07 in
Snow Depth Not available.
UV 0 out of 12
Pollen 6.30 out of 12
Air Quality Not available.
Flu Activity No Activity
SPECI KNMM 251004Z AUTO 12016G19KT 2SM +TSRA BR SCT005 BKN038 OVC090 21/19 A3009 RMK AO2 P0003 T02110189 $

More Conditions Fewer Conditions

10-Day Weather Forecast

Almanac

Astronomy

May. 25, 2015 Rise Set
Actual Time
Civil Twilight
Nautical Twilight
Astronomical Twilight
Moon
Length of Visible Light
Length of Day
Tomorrow will be .
, % of the Moon is Illuminated

Today's Extremes

State Highs State Lows

Community

WunderPhotos

Upload Photos

1,823,972 photos uploaded!

WunderBlogs® & News

Nearby

Air Quality

  Air Quality AQ Index Pollutant
Not available.

Snow Depth

Station Depth Elevation

Earthquake Activity

City Distance Mag. Time & Date
Minimum magnitude displayed is 2.5.

Coastal Water Temperatures

Place Temperature

Stations

Nearby Weather Stations

Station Location Temp. Windchill Dew Point Humidity Wind Precip. Elev Updated Type